sensor_id;sensor_type;location;lat;lon;timestamp;pressure;altitude;pressure_sealevel;temperature;humidity
77587;BME280;66744;49.716;17.158;2023-11-22T00:00:13;99231.13;;;7.02;70.82
77587;BME280;66744;49.716;17.158;2023-11-22T00:03:14;99230.38;;;6.98;70.04
77587;BME280;66744;49.716;17.158;2023-11-22T00:06:15;99232.78;;;6.92;69.56
77587;BME280;66744;49.716;17.158;2023-11-22T00:09:17;99243.81;;;6.82;69.41
77587;BME280;66744;49.716;17.158;2023-11-22T00:12:23;99247.72;;;6.81;69.27
77587;BME280;66744;49.716;17.158;2023-11-22T00:15:24;99242.25;;;6.81;68.77
77587;BME280;66744;49.716;17.158;2023-11-22T00:18:25;99254.75;;;6.82;67.53
77587;BME280;66744;49.716;17.158;2023-11-22T00:21:27;99252.84;;;6.75;67.36
77587;BME280;66744;49.716;17.158;2023-11-22T00:24:29;99264.59;;;6.68;67.29
77587;BME280;66744;49.716;17.158;2023-11-22T00:27:31;99270.13;;;6.61;66.82
77587;BME280;66744;49.716;17.158;2023-11-22T00:30:33;99269.34;;;6.61;66.76
77587;BME280;66744;49.716;17.158;2023-11-22T00:33:34;99270.94;;;6.58;68.11
77587;BME280;66744;49.716;17.158;2023-11-22T00:36:35;99284.69;;;6.44;68.51
77587;BME280;66744;49.716;17.158;2023-11-22T00:39:37;99290.19;;;6.34;67.87
77587;BME280;66744;49.716;17.158;2023-11-22T00:42:39;99289.16;;;6.17;68.10
77587;BME280;66744;49.716;17.158;2023-11-22T00:45:42;99295.03;;;6.08;68.05
77587;BME280;66744;49.716;17.158;2023-11-22T00:48:44;99301.28;;;6.05;67.04
77587;BME280;66744;49.716;17.158;2023-11-22T00:51:45;99294.75;;;5.89;65.77
77587;BME280;66744;49.716;17.158;2023-11-22T00:54:46;99305.25;;;5.80;65.99
77587;BME280;66744;49.716;17.158;2023-11-22T00:57:47;99309.56;;;5.81;67.53
77587;BME280;66744;49.716;17.158;2023-11-22T01:00:49;99309.16;;;5.82;67.52
77587;BME280;66744;49.716;17.158;2023-11-22T01:03:50;99297.88;;;5.80;66.33
77587;BME280;66744;49.716;17.158;2023-11-22T01:06:51;99306.06;;;5.87;66.77
77587;BME280;66744;49.716;17.158;2023-11-22T01:09:52;99306.44;;;5.86;66.11
77587;BME280;66744;49.716;17.158;2023-11-22T01:12:54;99312.69;;;5.86;66.84
77587;BME280;66744;49.716;17.158;2023-11-22T01:15:55;99306.44;;;5.89;65.30
77587;BME280;66744;49.716;17.158;2023-11-22T01:18:56;99316.16;;;5.90;65.40
77587;BME280;66744;49.716;17.158;2023-11-22T01:21:57;99321.22;;;5.88;64.85
77587;BME280;66744;49.716;17.158;2023-11-22T01:24:58;99323.19;;;5.88;64.75
77587;BME280;66744;49.716;17.158;2023-11-22T01:28:00;99316.97;;;5.87;65.82
77587;BME280;66744;49.716;17.158;2023-11-22T01:31:01;99325.13;;;5.84;64.88
77587;BME280;66744;49.716;17.158;2023-11-22T01:34:03;99325.91;;;5.81;65.95
77587;BME280;66744;49.716;17.158;2023-11-22T01:37:05;99334.50;;;5.76;65.38
77587;BME280;66744;49.716;17.158;2023-11-22T01:40:07;99335.66;;;5.82;65.55
77587;BME280;66744;49.716;17.158;2023-11-22T01:43:13;99352.38;;;5.84;63.85
77587;BME280;66744;49.716;17.158;2023-11-22T01:46:32;99350.03;;;5.82;64.69
77587;BME280;66744;49.716;17.158;2023-11-22T01:49:36;99360.56;;;5.84;65.70
77587;BME280;66744;49.716;17.158;2023-11-22T01:52:38;99359.41;;;5.85;64.85
77587;BME280;66744;49.716;17.158;2023-11-22T01:55:40;99357.47;;;5.82;64.87
77587;BME280;66744;49.716;17.158;2023-11-22T01:58:43;99362.13;;;5.78;64.87
77587;BME280;66744;49.716;17.158;2023-11-22T02:05:40;99365.66;;;5.78;65.52
77587;BME280;66744;49.716;17.158;2023-11-22T02:08:43;99376.19;;;5.73;64.76
77587;BME280;66744;49.716;17.158;2023-11-22T02:11:44;99378.13;;;5.61;64.43
77587;BME280;66744;49.716;17.158;2023-11-22T02:14:50;99385.94;;;5.56;65.13
77587;BME280;66744;49.716;17.158;2023-11-22T02:17:51;99392.94;;;5.53;64.11
77587;BME280;66744;49.716;17.158;2023-11-22T02:20:52;99395.28;;;5.58;64.52
77587;BME280;66744;49.716;17.158;2023-11-22T02:23:53;99401.91;;;5.54;63.57
77587;BME280;66744;49.716;17.158;2023-11-22T02:26:55;99389.84;;;5.44;63.75
77587;BME280;66744;49.716;17.158;2023-11-22T02:29:56;99401.13;;;5.46;62.86
77587;BME280;66744;49.716;17.158;2023-11-22T02:32:57;99402.72;;;5.40;63.33
77587;BME280;66744;49.716;17.158;2023-11-22T02:35:59;99395.31;;;5.30;62.16
77587;BME280;66744;49.716;17.158;2023-11-22T02:39:00;99401.56;;;5.27;63.79
77587;BME280;66744;49.716;17.158;2023-11-22T02:42:04;99399.97;;;5.26;63.38
77587;BME280;66744;49.716;17.158;2023-11-22T02:45:06;99414.78;;;5.25;63.77
77587;BME280;66744;49.716;17.158;2023-11-22T02:48:07;99414.38;;;5.27;63.31
77587;BME280;66744;49.716;17.158;2023-11-22T02:51:10;99422.53;;;5.20;64.60
77587;BME280;66744;49.716;17.158;2023-11-22T02:54:12;99431.91;;;5.04;64.06
77587;BME280;66744;49.716;17.158;2023-11-22T02:57:13;99437.72;;;4.89;64.65
77587;BME280;66744;49.716;17.158;2023-11-22T03:00:15;99448.56;;;4.78;65.88
77587;BME280;66744;49.716;17.158;2023-11-22T03:03:16;99457.50;;;4.72;65.48
77587;BME280;66744;49.716;17.158;2023-11-22T03:06:18;99458.28;;;4.69;66.88
77587;BME280;66744;49.716;17.158;2023-11-22T03:09:19;99467.19;;;4.69;66.97
77587;BME280;66744;49.716;17.158;2023-11-22T03:12:20;99476.97;;;4.77;67.27
77587;BME280;66744;49.716;17.158;2023-11-22T03:15:22;99487.84;;;4.77;66.71
77587;BME280;66744;49.716;17.158;2023-11-22T03:18:23;99494.44;;;4.76;66.19
77587;BME280;66744;49.716;17.158;2023-11-22T03:21:24;99498.69;;;4.70;67.53
77587;BME280;66744;49.716;17.158;2023-11-22T03:24:29;99491.28;;;4.64;68.26
77587;BME280;66744;49.716;17.158;2023-11-22T03:27:31;99506.41;;;4.58;68.33
77587;BME280;66744;49.716;17.158;2023-11-22T03:30:32;99501.75;;;4.55;68.90
77587;BME280;66744;49.716;17.158;2023-11-22T03:33:33;99498.63;;;4.49;68.86
77587;BME280;66744;49.716;17.158;2023-11-22T03:36:34;99499.78;;;4.44;69.25
77587;BME280;66744;49.716;17.158;2023-11-22T03:39:36;99498.22;;;4.43;68.94
77587;BME280;66744;49.716;17.158;2023-11-22T03:42:38;99504.06;;;4.49;69.50
77587;BME280;66744;49.716;17.158;2023-11-22T03:45:40;99510.66;;;4.44;70.09
77587;BME280;66744;49.716;17.158;2023-11-22T03:48:41;99522.31;;;4.48;70.70
77587;BME280;66744;49.716;17.158;2023-11-22T03:51:42;99532.03;;;4.46;71.16
77587;BME280;66744;49.716;17.158;2023-11-22T03:54:44;99545.22;;;4.44;72.11
77587;BME280;66744;49.716;17.158;2023-11-22T03:57:45;99546.38;;;4.43;72.02
77587;BME280;66744;49.716;17.158;2023-11-22T04:00:46;99555.72;;;4.45;72.23
77587;BME280;66744;49.716;17.158;2023-11-22T04:03:48;99570.50;;;4.44;73.01
77587;BME280;66744;49.716;17.158;2023-11-22T04:06:49;99567.00;;;4.44;72.47
77587;BME280;66744;49.716;17.158;2023-11-22T04:09:51;99572.41;;;4.40;73.50
77587;BME280;66744;49.716;17.158;2023-11-22T04:12:52;99578.19;;;4.32;73.35
77587;BME280;66744;49.716;17.158;2023-11-22T04:15:54;99578.97;;;4.32;73.29
77587;BME280;66744;49.716;17.158;2023-11-22T04:18:55;99577.81;;;4.33;74.16
77587;BME280;66744;49.716;17.158;2023-11-22T04:21:57;99580.50;;;4.26;74.27
77587;BME280;66744;49.716;17.158;2023-11-22T04:25:00;99584.78;;;4.27;73.99
77587;BME280;66744;49.716;17.158;2023-11-22T04:28:03;99580.47;;;4.23;73.74
77587;BME280;66744;49.716;17.158;2023-11-22T04:31:05;99595.22;;;4.22;74.43
77587;BME280;66744;49.716;17.158;2023-11-22T04:34:06;99602.16;;;4.12;74.01
77587;BME280;66744;49.716;17.158;2023-11-22T04:37:07;99600.19;;;4.09;73.55
77587;BME280;66744;49.716;17.158;2023-11-22T04:40:09;99607.91;;;4.07;74.10
77587;BME280;66744;49.716;17.158;2023-11-22T04:43:12;99614.06;;;3.97;73.78
77587;BME280;66744;49.716;17.158;2023-11-22T04:46:13;99618.28;;;3.91;74.37
77587;BME280;66744;49.716;17.158;2023-11-22T04:49:14;99617.91;;;3.92;74.57
77587;BME280;66744;49.716;17.158;2023-11-22T04:52:15;99613.59;;;3.88;74.90
77587;BME280;66744;49.716;17.158;2023-11-22T04:55:17;99621.38;;;3.86;74.82
77587;BME280;66744;49.716;17.158;2023-11-22T04:58:20;99631.84;;;3.87;74.29
77587;BME280;66744;49.716;17.158;2023-11-22T05:01:21;99641.97;;;3.90;74.13
77587;BME280;66744;49.716;17.158;2023-11-22T05:04:22;99643.16;;;3.93;73.87
77587;BME280;66744;49.716;17.158;2023-11-22T05:07:23;99648.59;;;3.93;74.15
77587;BME280;66744;49.716;17.158;2023-11-22T05:10:24;99655.25;;;3.99;73.28
77587;BME280;66744;49.716;17.158;2023-11-22T05:13:26;99649.81;;;3.99;72.98
77587;BME280;66744;49.716;17.158;2023-11-22T05:16:27;99653.38;;;4.07;73.06
77587;BME280;66744;49.716;17.158;2023-11-22T05:19:28;99668.50;;;4.08;73.45
77587;BME280;66744;49.716;17.158;2023-11-22T05:22:29;99670.81;;;4.02;71.52
77587;BME280;66744;49.716;17.158;2023-11-22T05:25:30;99678.97;;;4.02;73.45
77587;BME280;66744;49.716;17.158;2023-11-22T05:28:34;99687.81;;;3.96;69.17
77587;BME280;66744;49.716;17.158;2023-11-22T05:31:35;99689.94;;;3.72;66.99
77587;BME280;66744;49.716;17.158;2023-11-22T05:34:38;99677.78;;;3.63;66.27
77587;BME280;66744;49.716;17.158;2023-11-22T05:37:41;99683.31;;;3.70;67.14
77587;BME280;66744;49.716;17.158;2023-11-22T05:40:43;99686.78;;;3.67;66.17
77587;BME280;66744;49.716;17.158;2023-11-22T05:43:44;99686.72;;;3.63;66.70
77587;BME280;66744;49.716;17.158;2023-11-22T05:46:46;99680.94;;;3.68;66.09
77587;BME280;66744;49.716;17.158;2023-11-22T05:49:47;99686.06;;;3.73;66.10
77587;BME280;66744;49.716;17.158;2023-11-22T05:52:48;99691.50;;;3.73;65.63
77587;BME280;66744;49.716;17.158;2023-11-22T05:55:49;99694.97;;;3.70;65.12
77587;BME280;66744;49.716;17.158;2023-11-22T05:58:50;99698.47;;;3.71;64.68
77587;BME280;66744;49.716;17.158;2023-11-22T06:01:52;99696.06;;;3.66;64.91
77587;BME280;66744;49.716;17.158;2023-11-22T06:04:53;99701.94;;;3.68;64.26
77587;BME280;66744;49.716;17.158;2023-11-22T06:07:54;99690.97;;;3.61;64.95
77587;BME280;66744;49.716;17.158;2023-11-22T06:10:55;99710.09;;;3.68;64.93
77587;BME280;66744;49.716;17.158;2023-11-22T06:13:58;99719.38;;;3.67;63.53
77587;BME280;66744;49.716;17.158;2023-11-22T06:16:59;99723.63;;;3.64;63.75
77587;BME280;66744;49.716;17.158;2023-11-22T06:20:00;99720.47;;;3.59;64.87
77587;BME280;66744;49.716;17.158;2023-11-22T06:23:04;99720.84;;;3.61;64.23
77587;BME280;66744;49.716;17.158;2023-11-22T06:26:05;99721.25;;;3.63;63.63
77587;BME280;66744;49.716;17.158;2023-11-22T06:29:07;99727.88;;;3.62;64.15
77587;BME280;66744;49.716;17.158;2023-11-22T06:32:09;99737.56;;;3.63;64.16
77587;BME280;66744;49.716;17.158;2023-11-22T06:35:10;99751.88;;;3.60;63.78
77587;BME280;66744;49.716;17.158;2023-11-22T06:38:15;99761.09;;;3.52;63.80
77587;BME280;66744;49.716;17.158;2023-11-22T06:41:17;99774.34;;;3.53;63.40
77587;BME280;66744;49.716;17.158;2023-11-22T06:44:18;99782.88;;;3.55;63.58
77587;BME280;66744;49.716;17.158;2023-11-22T06:47:19;99785.66;;;3.59;63.47
77587;BME280;66744;49.716;17.158;2023-11-22T06:50:21;99788.78;;;3.61;63.23
77587;BME280;66744;49.716;17.158;2023-11-22T06:53:22;99797.66;;;3.58;63.24
77587;BME280;66744;49.716;17.158;2023-11-22T06:56:23;99782.06;;;3.51;63.58
77587;BME280;66744;49.716;17.158;2023-11-22T06:59:24;99792.50;;;3.49;64.40
77587;BME280;66744;49.716;17.158;2023-11-22T07:02:25;99797.94;;;3.49;63.96
77587;BME280;66744;49.716;17.158;2023-11-22T07:05:27;99794.03;;;3.47;63.63
77587;BME280;66744;49.716;17.158;2023-11-22T07:08:28;99800.59;;;3.46;63.63
77587;BME280;66744;49.716;17.158;2023-11-22T07:11:29;99806.44;;;3.48;63.17
77587;BME280;66744;49.716;17.158;2023-11-22T07:14:31;99810.78;;;3.52;63.47
77587;BME280;66744;49.716;17.158;2023-11-22T07:17:33;99820.47;;;3.50;63.45
77587;BME280;66744;49.716;17.158;2023-11-22T07:20:34;99828.91;;;3.45;63.45
77587;BME280;66744;49.716;17.158;2023-11-22T07:23:35;99830.81;;;3.41;63.87
77587;BME280;66744;49.716;17.158;2023-11-22T07:26:36;99826.19;;;3.45;64.21
77587;BME280;66744;49.716;17.158;2023-11-22T07:29:40;99835.56;;;3.47;64.73
77587;BME280;66744;49.716;17.158;2023-11-22T07:32:42;99848.41;;;3.50;64.10
77587;BME280;66744;49.716;17.158;2023-11-22T07:35:43;99847.50;;;3.43;63.72
77587;BME280;66744;49.716;17.158;2023-11-22T07:38:44;99849.91;;;3.48;64.92
77587;BME280;66744;49.716;17.158;2023-11-22T07:41:46;99850.28;;;3.46;63.96
77587;BME280;66744;49.716;17.158;2023-11-22T07:44:49;99853.31;;;3.41;64.52
77587;BME280;66744;49.716;17.158;2023-11-22T07:47:57;99859.09;;;3.40;64.55
77587;BME280;66744;49.716;17.158;2023-11-22T07:51:00;99845.53;;;3.40;65.38
77587;BME280;66744;49.716;17.158;2023-11-22T07:54:03;99864.13;;;3.38;65.33
77587;BME280;66744;49.716;17.158;2023-11-22T07:57:04;99867.56;;;3.34;66.23
77587;BME280;66744;49.716;17.158;2023-11-22T08:00:06;99879.53;;;3.30;65.18
77587;BME280;66744;49.716;17.158;2023-11-22T08:03:14;99884.59;;;3.31;66.55
77587;BME280;66744;49.716;17.158;2023-11-22T08:06:19;99895.88;;;3.33;66.02
77587;BME280;66744;49.716;17.158;2023-11-22T08:09:21;99899.06;;;3.39;66.56
77587;BME280;66744;49.716;17.158;2023-11-22T08:12:23;99891.69;;;3.40;66.05
77587;BME280;66744;49.716;17.158;2023-11-22T08:15:24;99890.09;;;3.35;66.97
77587;BME280;66744;49.716;17.158;2023-11-22T08:18:25;99882.34;;;3.37;66.63
77587;BME280;66744;49.716;17.158;2023-11-22T08:21:28;99890.88;;;3.35;66.26
77587;BME280;66744;49.716;17.158;2023-11-22T08:24:30;99887.41;;;3.38;66.23
77587;BME280;66744;49.716;17.158;2023-11-22T08:27:31;99898.03;;;3.47;66.13
77587;BME280;66744;49.716;17.158;2023-11-22T08:30:32;99906.22;;;3.51;65.77
77587;BME280;66744;49.716;17.158;2023-11-22T08:33:37;99913.94;;;3.49;65.95
77587;BME280;66744;49.716;17.158;2023-11-22T08:36:38;99931.03;;;3.49;65.94
77587;BME280;66744;49.716;17.158;2023-11-22T08:39:39;99934.88;;;3.48;66.10
77587;BME280;66744;49.716;17.158;2023-11-22T08:42:41;99936.81;;;3.48;65.39
77587;BME280;66744;49.716;17.158;2023-11-22T08:45:42;99936.81;;;3.48;66.65
77587;BME280;66744;49.716;17.158;2023-11-22T08:48:45;99932.56;;;3.47;66.01
77587;BME280;66744;49.716;17.158;2023-11-22T08:51:46;99941.09;;;3.49;66.44
77587;BME280;66744;49.716;17.158;2023-11-22T08:54:49;99938.78;;;3.47;65.89
77587;BME280;66744;49.716;17.158;2023-11-22T08:57:52;99940.22;;;3.41;65.67
77587;BME280;66744;49.716;17.158;2023-11-22T09:00:53;99948.00;;;3.43;65.65
77587;BME280;66744;49.716;17.158;2023-11-22T09:03:55;99951.84;;;3.42;66.92
77587;BME280;66744;49.716;17.158;2023-11-22T09:06:58;99957.00;;;3.47;66.44
77587;BME280;66744;49.716;17.158;2023-11-22T09:09:59;99976.66;;;3.40;65.17
77587;BME280;66744;49.716;17.158;2023-11-22T09:13:00;99979.00;;;3.42;65.62
77587;BME280;66744;49.716;17.158;2023-11-22T09:16:03;99998.41;;;3.40;65.64
77587;BME280;66744;49.716;17.158;2023-11-22T09:19:06;100005.44;;;3.45;65.57
77587;BME280;66744;49.716;17.158;2023-11-22T09:22:09;100001.59;;;3.46;66.43
77587;BME280;66744;49.716;17.158;2023-11-22T09:25:12;100005.50;;;3.48;65.66
77587;BME280;66744;49.716;17.158;2023-11-22T09:28:13;100011.06;;;3.55;65.42
77587;BME280;66744;49.716;17.158;2023-11-22T09:31:16;100007.88;;;3.50;66.01
77587;BME280;66744;49.716;17.158;2023-11-22T09:34:21;100017.03;;;3.42;65.21
77587;BME280;66744;49.716;17.158;2023-11-22T09:37:22;100028.63;;;3.38;65.66
77587;BME280;66744;49.716;17.158;2023-11-22T09:40:24;100020.91;;;3.41;65.26
77587;BME280;66744;49.716;17.158;2023-11-22T09:43:25;100018.53;;;3.39;65.32
77587;BME280;66744;49.716;17.158;2023-11-22T09:46:29;100013.84;;;3.36;66.49
77587;BME280;66744;49.716;17.158;2023-11-22T09:49:31;100007.28;;;3.37;65.64
77587;BME280;66744;49.716;17.158;2023-11-22T09:52:33;99996.28;;;3.30;66.15
77587;BME280;66744;49.716;17.158;2023-11-22T09:55:41;99991.63;;;3.30;65.92
77587;BME280;66744;49.716;17.158;2023-11-22T09:58:44;99984.16;;;3.24;65.16
77587;BME280;66744;49.716;17.158;2023-11-22T10:01:45;99977.09;;;3.19;66.02
77587;BME280;66744;49.716;17.158;2023-11-22T10:04:47;99973.97;;;3.17;66.62
77587;BME280;66744;49.716;17.158;2023-11-22T10:07:48;99983.97;;;3.13;66.07
77587;BME280;66744;49.716;17.158;2023-11-22T10:10:50;99997.19;;;3.15;65.24
77587;BME280;66744;49.716;17.158;2023-11-22T10:13:55;100007.31;;;3.18;65.55
77587;BME280;66744;49.716;17.158;2023-11-22T10:16:59;100018.19;;;3.18;64.76
77587;BME280;66744;49.716;17.158;2023-11-22T10:20:01;100024.59;;;3.29;65.18
77587;BME280;66744;49.716;17.158;2023-11-22T10:23:11;100034.25;;;3.26;65.52
77587;BME280;66744;49.716;17.158;2023-11-22T10:26:12;100017.53;;;3.24;64.94
77587;BME280;66744;49.716;17.158;2023-11-22T10:29:14;100007.38;;;3.21;65.54
77587;BME280;66744;49.716;17.158;2023-11-22T10:32:16;100008.19;;;3.22;64.42
77587;BME280;66744;49.716;17.158;2023-11-22T10:35:18;100006.66;;;3.24;65.50
77587;BME280;66744;49.716;17.158;2023-11-22T10:38:23;100006.59;;;3.21;64.74
77587;BME280;66744;49.716;17.158;2023-11-22T10:41:24;100011.91;;;3.14;65.09
77587;BME280;66744;49.716;17.158;2023-11-22T10:44:25;100019.28;;;3.13;65.83
77587;BME280;66744;49.716;17.158;2023-11-22T10:47:28;100037.47;;;3.13;64.75
77587;BME280;66744;49.716;17.158;2023-11-22T10:50:31;100056.56;;;3.16;64.91
77587;BME280;66744;49.716;17.158;2023-11-22T10:53:34;100050.41;;;3.19;65.76
77587;BME280;66744;49.716;17.158;2023-11-22T10:56:39;100057.03;;;3.22;64.87
77587;BME280;66744;49.716;17.158;2023-11-22T10:59:43;100069.97;;;3.28;64.95
77587;BME280;66744;49.716;17.158;2023-11-22T11:02:59;100060.63;;;3.26;65.02
77587;BME280;66744;49.716;17.158;2023-11-22T11:06:02;100053.53;;;3.21;64.79
77587;BME280;66744;49.716;17.158;2023-11-22T11:09:06;100062.72;;;3.13;64.95
77587;BME280;66744;49.716;17.158;2023-11-22T11:12:10;100079.06;;;3.17;65.73
77587;BME280;66744;49.716;17.158;2023-11-22T11:15:12;100081.06;;;3.20;65.32
77587;BME280;66744;49.716;17.158;2023-11-22T11:18:15;100061.50;;;3.11;64.60
77587;BME280;66744;49.716;17.158;2023-11-22T11:21:16;100062.16;;;3.04;65.49
77587;BME280;66744;49.716;17.158;2023-11-22T11:24:19;100072.59;;;3.02;65.81
77587;BME280;66744;49.716;17.158;2023-11-22T11:27:21;100075.38;;;3.06;65.97
77587;BME280;66744;49.716;17.158;2023-11-22T11:33:33;100082.72;;;3.05;65.67
77587;BME280;66744;49.716;17.158;2023-11-22T11:36:37;100079.16;;;3.01;65.49
77587;BME280;66744;49.716;17.158;2023-11-22T11:39:38;100083.94;;;2.89;67.70
77587;BME280;66744;49.716;17.158;2023-11-22T11:42:40;100101.00;;;2.89;66.29
77587;BME280;66744;49.716;17.158;2023-11-22T11:45:44;100093.28;;;2.91;66.28
77587;BME280;66744;49.716;17.158;2023-11-22T11:48:49;100102.72;;;2.97;65.94
77587;BME280;66744;49.716;17.158;2023-11-22T11:51:51;100096.94;;;2.99;65.50
77587;BME280;66744;49.716;17.158;2023-11-22T11:54:53;100096.94;;;2.99;66.18
77587;BME280;66744;49.716;17.158;2023-11-22T11:57:54;100101.28;;;3.03;66.28
77587;BME280;66744;49.716;17.158;2023-11-22T12:00:56;100099.72;;;3.02;65.90
77587;BME280;66744;49.716;17.158;2023-11-22T12:04:00;100094.22;;;2.99;65.57
77587;BME280;66744;49.716;17.158;2023-11-22T12:07:02;100095.84;;;3.03;65.66
77587;BME280;66744;49.716;17.158;2023-11-22T12:10:05;100105.28;;;3.09;66.30
77587;BME280;66744;49.716;17.158;2023-11-22T12:13:09;100110.59;;;3.02;64.54
77587;BME280;66744;49.716;17.158;2023-11-22T12:16:13;100116.44;;;3.04;65.34
77587;BME280;66744;49.716;17.158;2023-11-22T12:19:27;100102.22;;;3.11;65.54
77587;BME280;66744;49.716;17.158;2023-11-22T12:22:29;100093.28;;;3.10;65.05
77587;BME280;66744;49.716;17.158;2023-11-22T12:25:30;100098.88;;;3.17;65.55
77587;BME280;66744;49.716;17.158;2023-11-22T12:28:32;100103.00;;;3.11;64.32
77587;BME280;66744;49.716;17.158;2023-11-22T12:31:34;100115.06;;;3.14;65.03
77587;BME280;66744;49.716;17.158;2023-11-22T12:34:35;100093.34;;;3.14;65.09
77587;BME280;66744;49.716;17.158;2023-11-22T12:37:36;100082.06;;;3.12;64.67
77587;BME280;66744;49.716;17.158;2023-11-22T12:40:37;100086.00;;;3.14;64.58
77587;BME280;66744;49.716;17.158;2023-11-22T12:43:39;100073.19;;;3.15;64.97
77587;BME280;66744;49.716;17.158;2023-11-22T12:46:49;100091.78;;;3.13;64.57
77587;BME280;66744;49.716;17.158;2023-11-22T12:49:56;100106.56;;;3.15;65.01
77587;BME280;66744;49.716;17.158;2023-11-22T12:52:58;100109.75;;;3.21;64.71
77587;BME280;66744;49.716;17.158;2023-11-22T12:56:00;100112.78;;;3.16;64.49
77587;BME280;66744;49.716;17.158;2023-11-22T12:59:03;100108.84;;;3.13;64.01
77587;BME280;66744;49.716;17.158;2023-11-22T13:02:05;100104.28;;;3.17;64.49
77587;BME280;66744;49.716;17.158;2023-11-22T13:05:07;100112.13;;;3.22;64.26
77587;BME280;66744;49.716;17.158;2023-11-22T13:08:14;100096.72;;;3.26;64.79
77587;BME280;66744;49.716;17.158;2023-11-22T13:11:15;100092.34;;;3.22;64.01
77587;BME280;66744;49.716;17.158;2023-11-22T13:14:17;100088.84;;;3.21;64.36
77587;BME280;66744;49.716;17.158;2023-11-22T13:17:19;100088.72;;;3.14;63.96
77587;BME280;66744;49.716;17.158;2023-11-22T13:20:23;100105.84;;;3.18;64.12
77587;BME280;66744;49.716;17.158;2023-11-22T13:23:26;100107.06;;;3.21;63.63
77587;BME280;66744;49.716;17.158;2023-11-22T13:26:27;100103.50;;;3.17;64.08
77587;BME280;66744;49.716;17.158;2023-11-22T13:29:28;100101.13;;;3.15;64.74
77587;BME280;66744;49.716;17.158;2023-11-22T13:32:29;100107.34;;;3.16;63.37
77587;BME280;66744;49.716;17.158;2023-11-22T13:35:30;100114.78;;;3.19;64.07
77587;BME280;66744;49.716;17.158;2023-11-22T13:38:32;100129.56;;;3.21;63.58
77587;BME280;66744;49.716;17.158;2023-11-22T13:41:33;100128.00;;;3.20;63.50
77587;BME280;66744;49.716;17.158;2023-11-22T13:44:34;100123.28;;;3.17;64.07
77587;BME280;66744;49.716;17.158;2023-11-22T13:47:35;100122.06;;;3.15;64.38
77587;BME280;66744;49.716;17.158;2023-11-22T13:50:37;100123.56;;;3.12;63.90
77587;BME280;66744;49.716;17.158;2023-11-22T13:53:38;100135.63;;;3.15;64.41
77587;BME280;66744;49.716;17.158;2023-11-22T13:56:44;100148.16;;;3.19;64.25
77587;BME280;66744;49.716;17.158;2023-11-22T13:59:47;100149.34;;;3.22;64.14
77587;BME280;66744;49.716;17.158;2023-11-22T14:02:53;100145.78;;;3.18;64.82
77587;BME280;66744;49.716;17.158;2023-11-22T14:05:56;100155.72;;;3.10;65.02
77587;BME280;66744;49.716;17.158;2023-11-22T14:08:58;100156.13;;;3.12;65.69
77587;BME280;66744;49.716;17.158;2023-11-22T14:11:59;100163.00;;;3.06;64.67
77587;BME280;66744;49.716;17.158;2023-11-22T14:15:00;100171.13;;;3.06;63.90
77587;BME280;66744;49.716;17.158;2023-11-22T14:18:04;100185.59;;;3.10;64.26
77587;BME280;66744;49.716;17.158;2023-11-22T14:21:06;100184.72;;;3.06;64.50
77587;BME280;66744;49.716;17.158;2023-11-22T14:24:08;100166.50;;;3.07;65.09
77587;BME280;66744;49.716;17.158;2023-11-22T14:27:09;100167.66;;;3.06;64.59
77587;BME280;66744;49.716;17.158;2023-11-22T14:30:12;100166.50;;;3.07;64.82
77587;BME280;66744;49.716;17.158;2023-11-22T14:33:18;100161.44;;;3.05;65.17
77587;BME280;66744;49.716;17.158;2023-11-22T14:36:19;100164.16;;;3.05;64.45
77587;BME280;66744;49.716;17.158;2023-11-22T14:39:20;100172.72;;;3.07;64.77
77587;BME280;66744;49.716;17.158;2023-11-22T14:42:21;100170.50;;;3.13;64.51
77587;BME280;66744;49.716;17.158;2023-11-22T14:45:23;100169.66;;;3.09;63.97
77587;BME280;66744;49.716;17.158;2023-11-22T14:48:27;100176.22;;;3.08;64.64
77587;BME280;66744;49.716;17.158;2023-11-22T14:51:28;100179.22;;;3.03;64.93
77587;BME280;66744;49.716;17.158;2023-11-22T14:54:30;100177.56;;;2.98;64.61
77587;BME280;66744;49.716;17.158;2023-11-22T14:57:31;100186.22;;;3.04;64.83
77587;BME280;66744;49.716;17.158;2023-11-22T15:00:33;100184.38;;;3.08;64.64
77587;BME280;66744;49.716;17.158;2023-11-22T15:03:37;100175.84;;;3.09;64.07
77587;BME280;66744;49.716;17.158;2023-11-22T15:06:38;100182.38;;;3.05;64.14
77587;BME280;66744;49.716;17.158;2023-11-22T15:09:39;100186.84;;;2.97;63.68
77587;BME280;66744;49.716;17.158;2023-11-22T15:12:40;100192.28;;;2.97;63.64
77587;BME280;66744;49.716;17.158;2023-11-22T15:15:43;100184.50;;;2.96;64.16
77587;BME280;66744;49.716;17.158;2023-11-22T15:18:44;100189.06;;;2.92;63.41
77587;BME280;66744;49.716;17.158;2023-11-22T15:21:45;100190.28;;;2.94;64.04
77587;BME280;66744;49.716;17.158;2023-11-22T15:24:46;100194.22;;;2.97;63.81
77587;BME280;66744;49.716;17.158;2023-11-22T15:27:47;100180.66;;;2.97;63.69
77587;BME280;66744;49.716;17.158;2023-11-22T15:30:49;100178.38;;;2.99;64.16
77587;BME280;66744;49.716;17.158;2023-11-22T15:33:50;100182.66;;;3.00;63.69
77587;BME280;66744;49.716;17.158;2023-11-22T15:36:51;100202.00;;;2.98;64.12
77587;BME280;66744;49.716;17.158;2023-11-22T15:39:52;100208.56;;;2.97;63.54
77587;BME280;66744;49.716;17.158;2023-11-22T15:42:53;100206.50;;;2.91;63.65
77587;BME280;66744;49.716;17.158;2023-11-22T15:45:58;100199.78;;;2.85;63.96
77587;BME280;66744;49.716;17.158;2023-11-22T15:49:00;100193.31;;;2.73;64.77
77587;BME280;66744;49.716;17.158;2023-11-22T15:52:01;100202.94;;;2.71;65.03
77587;BME280;66744;49.716;17.158;2023-11-22T15:55:03;100205.22;;;2.69;64.86
77587;BME280;66744;49.716;17.158;2023-11-22T15:58:06;100206.38;;;2.68;65.91
77587;BME280;66744;49.716;17.158;2023-11-22T16:01:08;100197.38;;;2.64;66.20
77587;BME280;66744;49.716;17.158;2023-11-22T16:04:09;100177.44;;;2.56;66.40